Tipton Airport Fort Meade(Odenton) US
ICAO: KFME
IATA: FME
Category: Medium
Scheduled Services: No

Elevation: 150 ft
TransAlt. 18000 ft.

Airport Communications:
POTOMAC APP DEP:119.7
AWOS 3:123.925
CTAF/UNICOM:123.05

KFME Zoom In..

If you have problems with the map follow the link
https://www.worldairports.se/pages/airport.php?
ICAO=KFME

Runways:

(A) RW 10 length 3000 ft width 75 ft
---- / hdg 104

(B) RW 28 length 3000 ft width 75 ft
---- / hdg 284

Location; KFME
Day. 24 / Time. 08.42 Zulu
* Altimeter: 29.72
* Temperature: 10° c. 50°f.
* Wind from: 150° Speed 04 kn.
Dewpoint: 10° c.
Visibility: 4 Statute Miles.
Clouds: Broken 600 ft.
Clouds: Broken 1300 ft.
Clouds: Overcast 2200 ft.

KFME 240842Z AUTO 15004KT 4SM BKN006 BKN013 OVC022 10/10 A2972 RMK AO1


Wind From 150°
Speed 04 kn.

 
 
jpsmedia.com for Web Design worldairports.se 2019   terms of use